createdAt,value
2023-01-23T00:01:29.079Z,9.40
2023-01-23T00:03:57.438Z,9.07
2023-01-23T00:06:25.018Z,8.93
2023-01-23T00:08:52.300Z,9.57
2023-01-23T00:11:22.537Z,8.60
2023-01-23T00:13:50.307Z,8.83
2023-01-23T00:16:20.218Z,8.20
2023-01-23T00:18:48.145Z,8.47
2023-01-23T00:21:16.266Z,9.10
2023-01-23T00:23:44.933Z,9.40
2023-01-23T00:26:15.874Z,9.30
2023-01-23T00:28:45.294Z,8.07
2023-01-23T00:31:14.470Z,8.70
2023-01-23T00:33:43.413Z,8.97
2023-01-23T00:36:11.731Z,8.63
2023-01-23T00:38:40.046Z,9.43
2023-01-23T00:41:07.893Z,9.20
2023-01-23T00:43:35.320Z,8.30
2023-01-23T00:46:02.828Z,9.43
2023-01-23T00:48:30.405Z,8.40
2023-01-23T00:50:57.741Z,9.37
2023-01-23T00:53:25.414Z,10.00
2023-01-23T00:55:53.611Z,9.90
2023-01-23T00:58:20.992Z,9.87
2023-01-23T01:00:50.176Z,9.13
2023-01-23T01:03:20.500Z,8.40
2023-01-23T01:05:48.302Z,8.67
2023-01-23T01:08:15.800Z,9.63
2023-01-23T01:10:43.684Z,8.20
2023-01-23T01:13:11.817Z,8.23
2023-01-23T01:15:39.901Z,9.43
2023-01-23T01:18:07.400Z,9.73
2023-01-23T01:20:35.211Z,8.10
2023-01-23T01:23:02.931Z,8.27
2023-01-23T01:25:31.549Z,9.60
2023-01-23T01:27:59.423Z,9.33
2023-01-23T01:30:27.230Z,8.87
2023-01-23T01:32:55.450Z,8.97
2023-01-23T01:35:23.697Z,9.47
2023-01-23T01:37:52.119Z,8.73
2023-01-23T01:40:21.597Z,8.33
2023-01-23T01:42:51.484Z,9.03
2023-01-23T01:45:38.199Z,8.90
2023-01-23T01:48:05.493Z,8.67
2023-01-23T01:50:35.115Z,8.17
2023-01-23T01:53:04.800Z,8.83
2023-01-23T01:55:32.949Z,9.63
2023-01-23T01:58:01.625Z,9.40
2023-01-23T02:00:28.931Z,8.17
2023-01-23T02:03:01.474Z,8.40
2023-01-23T02:05:31.145Z,7.80
2023-01-23T02:08:18.042Z,10.20
2023-01-23T02:10:47.490Z,9.03
2023-01-23T02:13:28.399Z,9.70
2023-01-23T02:15:56.470Z,8.80
2023-01-23T02:18:24.829Z,9.43
2023-01-23T02:20:53.285Z,9.27
2023-01-23T02:23:30.476Z,9.20
2023-01-23T02:26:06.213Z,8.97
2023-01-23T02:28:41.859Z,9.03
2023-01-23T02:31:10.368Z,9.23
2023-01-23T02:33:38.480Z,10.13
2023-01-23T02:36:06.101Z,9.77
2023-01-23T02:38:37.057Z,9.63
2023-01-23T02:41:06.473Z,10.03
2023-01-23T02:43:39.184Z,10.40
2023-01-23T02:46:10.041Z,9.50
2023-01-23T02:48:38.189Z,10.33
2023-01-23T02:51:06.090Z,9.60
2023-01-23T02:53:33.764Z,8.67
2023-01-23T02:56:01.016Z,11.47
2023-01-23T02:58:47.368Z,10.63
2023-01-23T03:01:14.603Z,11.13
2023-01-23T03:03:42.508Z,10.47
2023-01-23T03:06:10.532Z,10.50
2023-01-23T03:08:48.136Z,11.40
2023-01-23T03:11:17.844Z,10.60
2023-01-23T03:13:46.434Z,10.20
2023-01-23T03:16:14.021Z,11.30
2023-01-23T03:18:53.618Z,10.40
2023-01-23T03:21:22.159Z,9.87
2023-01-23T03:23:49.602Z,10.10
2023-01-23T03:26:20.061Z,10.13
2023-01-23T03:29:07.920Z,9.67
2023-01-23T03:31:36.355Z,11.63
2023-01-23T03:34:04.038Z,9.80
2023-01-23T03:36:37.271Z,10.30
2023-01-23T03:39:24.233Z,9.20
2023-01-23T03:41:52.983Z,9.43
2023-01-23T03:44:22.677Z,9.70
2023-01-23T03:46:51.538Z,9.57
2023-01-23T03:49:19.211Z,9.67
2023-01-23T03:51:50.596Z,9.70
2023-01-23T03:54:18.112Z,9.00
2023-01-23T03:56:45.935Z,9.40
2023-01-23T03:59:30.038Z,8.00
2023-01-23T04:01:58.029Z,9.67
2023-01-23T04:04:25.794Z,9.57
2023-01-23T04:06:53.277Z,8.43
2023-01-23T04:09:26.419Z,9.40
2023-01-23T04:11:58.427Z,8.20
2023-01-23T04:14:30.441Z,8.63
2023-01-23T04:16:59.544Z,9.40
2023-01-23T04:19:26.975Z,9.37
2023-01-23T04:21:54.499Z,9.00
2023-01-23T04:24:22.187Z,8.23
2023-01-23T04:26:50.627Z,7.93
2023-01-23T04:29:17.998Z,9.53
2023-01-23T04:31:47.521Z,9.77
2023-01-23T04:34:15.603Z,9.77
2023-01-23T04:36:43.654Z,8.30
2023-01-23T04:39:11.248Z,9.80
2023-01-23T04:41:41.797Z,8.27
2023-01-23T04:44:20.854Z,9.10
2023-01-23T04:47:07.638Z,8.07
2023-01-23T04:49:36.053Z,10.20
2023-01-23T04:52:04.970Z,9.10
2023-01-23T04:54:36.468Z,9.60
2023-01-23T04:57:04.544Z,9.30
2023-01-23T04:59:32.725Z,8.73
2023-01-23T05:02:02.302Z,8.63
2023-01-23T05:04:36.496Z,9.43
2023-01-23T05:07:04.880Z,9.90
2023-01-23T05:09:39.662Z,8.67
2023-01-23T05:12:08.870Z,9.90
2023-01-23T05:14:38.937Z,9.03
2023-01-23T05:17:06.348Z,9.53
2023-01-23T05:19:42.373Z,9.07
2023-01-23T05:22:11.022Z,8.83
2023-01-23T05:24:38.916Z,8.73
2023-01-23T05:27:06.483Z,8.83
2023-01-23T05:29:37.901Z,8.47
2023-01-23T05:32:14.611Z,7.83
2023-01-23T05:35:05.629Z,9.07
2023-01-23T05:37:33.200Z,8.40
2023-01-23T05:40:07.024Z,7.93
2023-01-23T05:42:53.365Z,8.80
2023-01-23T05:45:43.617Z,8.40
2023-01-23T05:48:19.213Z,8.10
2023-01-23T05:50:47.050Z,9.43
2023-01-23T05:53:14.751Z,8.43
2023-01-23T05:55:42.886Z,7.80
2023-01-23T05:58:15.027Z,8.17
2023-01-23T06:01:09.675Z,8.70
2023-01-23T06:03:55.640Z,8.47
2023-01-23T06:06:37.011Z,7.10
2023-01-23T06:09:04.581Z,7.70
2023-01-23T06:11:32.313Z,9.23
2023-01-23T06:13:59.894Z,8.27
2023-01-23T06:16:28.328Z,7.90
2023-01-23T06:18:56.275Z,8.60
2023-01-23T06:21:23.883Z,8.23
2023-01-23T06:23:51.055Z,8.07
2023-01-23T06:26:19.337Z,7.53
2023-01-23T06:28:48.930Z,8.47
2023-01-23T06:31:17.097Z,7.90
2023-01-23T06:33:54.576Z,8.30
2023-01-23T06:36:26.827Z,8.20
2023-01-23T06:38:55.602Z,8.23
2023-01-23T06:41:28.812Z,7.77
2023-01-23T06:44:01.322Z,7.83
2023-01-23T06:46:29.662Z,7.20
2023-01-23T06:48:57.706Z,7.30
2023-01-23T06:51:25.131Z,8.37
2023-01-23T06:53:52.701Z,7.93
2023-01-23T06:56:20.086Z,8.07
2023-01-23T06:58:48.828Z,7.73
2023-01-23T07:01:26.470Z,8.23
2023-01-23T07:04:19.893Z,7.00
2023-01-23T07:06:50.159Z,7.80
2023-01-23T07:09:19.556Z,8.83
2023-01-23T07:11:55.088Z,7.13
2023-01-23T07:14:22.724Z,8.00
2023-01-23T07:16:54.076Z,7.40
2023-01-23T07:19:21.430Z,7.47
2023-01-23T07:21:49.194Z,7.17
2023-01-23T07:24:16.471Z,6.97
2023-01-23T07:26:43.626Z,7.47
2023-01-23T07:29:11.791Z,7.57
2023-01-23T07:31:39.006Z,7.80
2023-01-23T07:34:06.242Z,7.40
2023-01-23T07:36:33.376Z,7.10
2023-01-23T07:39:00.585Z,7.33
2023-01-23T07:41:27.735Z,6.83
2023-01-23T07:43:54.865Z,7.60
2023-01-23T07:46:23.650Z,8.10
2023-01-23T07:48:50.951Z,7.70
2023-01-23T07:51:18.130Z,7.53
2023-01-23T07:53:45.341Z,8.60
2023-01-23T07:56:13.374Z,9.37
2023-01-23T07:58:40.533Z,7.67
2023-01-23T08:01:09.038Z,8.00
2023-01-23T08:03:36.500Z,8.43
2023-01-23T08:06:04.440Z,7.40
2023-01-23T08:08:31.607Z,8.10
2023-01-23T08:10:58.801Z,8.50
2023-01-23T08:13:25.989Z,8.03
2023-01-23T08:15:55.433Z,8.10
2023-01-23T08:18:22.677Z,8.30
2023-01-23T08:20:54.191Z,9.77
2023-01-23T08:23:21.366Z,7.83
2023-01-23T08:25:52.770Z,8.80
2023-01-23T08:28:20.002Z,8.30
2023-01-23T08:30:47.335Z,8.60
2023-01-23T08:33:14.560Z,8.30
2023-01-23T08:35:48.929Z,9.13
2023-01-23T08:38:17.605Z,8.83
2023-01-23T08:40:44.804Z,7.93
2023-01-23T08:43:13.863Z,8.80
2023-01-23T08:45:54.613Z,8.77
2023-01-23T08:48:22.456Z,8.20
2023-01-23T08:50:51.819Z,8.43
2023-01-23T08:53:19.018Z,8.80
2023-01-23T08:55:46.164Z,7.60
2023-01-23T08:58:13.316Z,7.73
2023-01-23T09:00:40.916Z,7.63
2023-01-23T09:03:11.128Z,8.40
2023-01-23T09:05:39.428Z,9.60
2023-01-23T09:08:06.643Z,9.00
2023-01-23T09:10:33.903Z,8.33
2023-01-23T09:13:02.478Z,7.47
2023-01-23T09:15:29.622Z,7.90
2023-01-23T09:17:57.029Z,8.33
2023-01-23T09:20:28.940Z,8.90
2023-01-23T09:22:56.323Z,7.90
2023-01-23T09:25:23.552Z,7.60
2023-01-23T09:27:50.703Z,8.00
2023-01-23T09:30:18.250Z,9.67
2023-01-23T09:32:46.301Z,8.70
2023-01-23T09:35:13.480Z,8.07
2023-01-23T09:37:59.856Z,7.90
2023-01-23T09:40:32.814Z,8.00
2023-01-23T09:43:02.815Z,8.20
2023-01-23T09:45:30.859Z,8.40
2023-01-23T09:48:05.445Z,8.00
2023-01-23T09:50:38.556Z,7.70
2023-01-23T09:53:14.043Z,7.97
2023-01-23T09:56:00.484Z,7.60
2023-01-23T09:58:39.296Z,7.60
2023-01-23T10:01:06.541Z,7.30
2023-01-23T10:03:33.735Z,7.70
2023-01-23T10:06:19.454Z,7.60
2023-01-23T10:09:04.922Z,8.37
2023-01-23T10:11:51.240Z,8.23
2023-01-23T10:14:27.642Z,7.00
2023-01-23T10:17:01.022Z,8.00
2023-01-23T10:20:06.771Z,7.00
2023-01-23T10:22:42.137Z,7.50
2023-01-23T10:25:15.975Z,6.70
2023-01-23T10:27:48.808Z,7.90
2023-01-23T10:30:21.561Z,7.30
2023-01-23T10:32:49.336Z,7.30
2023-01-23T10:35:19.716Z,8.70
2023-01-23T10:38:09.657Z,7.50
2023-01-23T10:40:55.756Z,7.00
2023-01-23T10:43:23.302Z,7.80
2023-01-23T10:45:50.823Z,8.17
2023-01-23T10:48:33.344Z,8.30
2023-01-23T10:51:01.063Z,7.70
2023-01-23T10:53:28.325Z,7.70
2023-01-23T10:55:58.003Z,8.10
2023-01-23T10:58:37.196Z,7.87
2023-01-23T11:01:05.155Z,8.87
2023-01-23T11:03:33.690Z,7.47
2023-01-23T11:06:05.452Z,7.80
2023-01-23T11:08:32.726Z,6.67
2023-01-23T11:11:18.601Z,7.30
2023-01-23T11:13:47.316Z,8.10
2023-01-23T11:16:18.817Z,7.07
2023-01-23T11:19:06.211Z,8.07
2023-01-23T11:21:34.888Z,7.47
2023-01-23T11:24:20.471Z,7.43
2023-01-23T11:26:58.539Z,5.53
2023-01-23T11:29:26.965Z,7.53
2023-01-23T11:32:06.179Z,6.60
2023-01-23T11:34:43.597Z,7.30
2023-01-23T11:37:14.640Z,7.37
2023-01-23T11:39:50.355Z,6.60
2023-01-23T11:42:19.410Z,8.20
2023-01-23T11:44:47.780Z,7.33
2023-01-23T11:47:20.811Z,6.73
2023-01-23T11:49:54.194Z,8.50
2023-01-23T11:52:31.520Z,7.50
2023-01-23T11:55:22.962Z,6.70
2023-01-23T11:57:56.611Z,6.40
2023-01-23T12:00:34.077Z,7.10
2023-01-23T12:03:19.572Z,7.60
2023-01-23T12:06:19.229Z,7.53
2023-01-23T12:08:54.489Z,6.77
2023-01-23T12:11:24.210Z,6.80
2023-01-23T12:13:51.374Z,6.73
2023-01-23T12:16:24.962Z,7.03
2023-01-23T12:18:52.204Z,6.50
2023-01-23T12:21:21.040Z,6.90
2023-01-23T12:23:57.408Z,8.20
2023-01-23T12:26:26.288Z,6.73
2023-01-23T12:29:13.566Z,7.10
2023-01-23T12:31:45.458Z,8.40
2023-01-23T12:34:31.033Z,7.43
2023-01-23T12:37:12.325Z,7.67
2023-01-23T12:39:56.192Z,7.20
2023-01-23T12:42:37.326Z,7.33
2023-01-23T12:45:12.530Z,7.30
2023-01-23T12:47:49.513Z,7.00
2023-01-23T12:50:20.414Z,7.40
2023-01-23T12:52:54.242Z,7.70
2023-01-23T12:55:26.813Z,8.07
2023-01-23T12:58:07.110Z,6.93
2023-01-23T13:00:35.356Z,7.80
2023-01-23T13:03:18.390Z,7.53
2023-01-23T13:05:52.748Z,7.73
2023-01-23T13:08:40.540Z,8.13
2023-01-23T13:11:44.728Z,7.00
2023-01-23T13:14:21.745Z,7.90
2023-01-23T13:16:49.886Z,8.33
2023-01-23T13:19:46.307Z,7.47
2023-01-23T13:22:26.757Z,7.77
2023-01-23T13:25:12.718Z,6.97
2023-01-23T13:27:55.543Z,6.40
2023-01-23T13:30:26.136Z,6.37
2023-01-23T13:32:54.799Z,7.73
2023-01-23T13:35:40.118Z,8.00
2023-01-23T13:38:29.406Z,6.60
2023-01-23T13:41:04.463Z,6.73
2023-01-23T13:43:50.070Z,5.97
2023-01-23T13:46:26.472Z,6.20
2023-01-23T14:21:42.055Z,8.40
2023-01-23T14:24:22.055Z,6.33
2023-01-23T14:26:50.453Z,6.97
2023-01-23T14:29:24.763Z,6.90
2023-01-23T14:31:52.261Z,6.63
2023-01-23T14:34:21.070Z,6.83
2023-01-23T14:36:52.714Z,6.30
2023-01-23T14:39:24.041Z,7.47
2023-01-23T14:41:51.671Z,7.67
2023-01-23T14:44:24.054Z,7.60
2023-01-23T14:46:52.742Z,8.00
2023-01-23T14:49:29.161Z,8.30
2023-01-23T14:52:00.829Z,7.53
2023-01-23T14:54:32.905Z,7.07
2023-01-23T14:57:04.226Z,7.50
2023-01-23T14:59:38.966Z,7.37
2023-01-23T15:02:25.258Z,8.43
2023-01-23T15:05:19.213Z,8.43
2023-01-23T15:07:48.061Z,7.70
2023-01-23T15:10:19.940Z,8.77
2023-01-23T15:12:50.109Z,8.97
2023-01-23T15:15:19.768Z,8.20
2023-01-23T15:17:52.604Z,8.73
2023-01-23T15:20:41.028Z,8.00
2023-01-23T15:23:30.934Z,8.97
2023-01-23T15:26:18.411Z,8.50
2023-01-23T15:28:55.845Z,9.27
2023-01-23T15:31:29.972Z,8.33
2023-01-23T15:33:58.335Z,8.20
2023-01-23T15:36:30.076Z,8.63
2023-01-23T15:38:58.590Z,9.17
2023-01-23T15:41:44.421Z,8.20
2023-01-23T15:44:17.135Z,8.70
2023-01-23T15:46:44.383Z,8.60
2023-01-23T15:49:24.366Z,8.70
2023-01-23T15:51:55.057Z,8.30
2023-01-23T15:54:28.579Z,8.57
2023-01-23T15:57:06.683Z,9.03
2023-01-23T15:59:35.904Z,9.83
2023-01-23T16:02:04.215Z,10.50
2023-01-23T16:04:31.410Z,8.43
2023-01-23T16:07:00.860Z,8.90
2023-01-23T16:09:30.633Z,9.47
2023-01-23T16:11:59.641Z,9.70
2023-01-23T16:14:27.245Z,8.90
2023-01-23T16:16:56.586Z,9.33
2023-01-23T16:19:23.903Z,9.20
2023-01-23T16:22:03.393Z,8.60
2023-01-23T16:24:32.587Z,9.70
2023-01-23T16:27:02.057Z,8.17
2023-01-23T16:29:29.267Z,9.40
2023-01-23T16:31:57.698Z,9.40
2023-01-23T16:34:25.573Z,10.20
2023-01-23T16:36:57.778Z,9.03
2023-01-23T16:39:27.031Z,10.30
2023-01-23T16:41:57.875Z,9.30
2023-01-23T16:44:25.150Z,9.37
2023-01-23T16:46:53.119Z,9.17
2023-01-23T16:49:20.947Z,9.63
2023-01-23T16:51:51.932Z,9.20
2023-01-23T16:54:21.333Z,9.80
2023-01-23T16:56:52.785Z,10.57
2023-01-23T16:59:21.717Z,10.53
2023-01-23T17:01:51.609Z,9.93
2023-01-23T17:04:20.858Z,9.97
2023-01-23T17:06:49.823Z,10.23
2023-01-23T17:09:17.886Z,10.23
2023-01-23T17:11:48.005Z,10.57
2023-01-23T17:14:16.939Z,10.47
2023-01-23T17:16:44.955Z,9.60
2023-01-23T17:19:18.827Z,10.30
2023-01-23T17:21:46.267Z,10.83
2023-01-23T17:24:17.436Z,9.57
2023-01-23T17:26:45.236Z,11.97
2023-01-23T17:29:12.952Z,10.60
2023-01-23T17:31:41.152Z,9.83
2023-01-23T17:34:16.409Z,10.67
2023-01-23T17:36:43.826Z,10.00
2023-01-23T17:39:11.832Z,10.03
2023-01-23T17:41:38.995Z,11.63
2023-01-23T17:44:06.159Z,11.00
2023-01-23T17:46:39.395Z,10.50
2023-01-23T17:49:20.975Z,9.97
2023-01-23T17:51:48.152Z,11.03
2023-01-23T17:54:19.927Z,11.20
2023-01-23T17:56:48.357Z,9.70
2023-01-23T17:59:15.858Z,11.20
2023-01-23T18:01:43.270Z,11.47
2023-01-23T18:04:21.117Z,11.63
2023-01-23T18:06:48.770Z,10.07
2023-01-23T18:09:16.021Z,11.50
2023-01-23T18:11:49.702Z,11.63
2023-01-23T18:14:36.137Z,12.17
2023-01-23T18:17:09.621Z,11.23
2023-01-23T18:19:37.095Z,11.50
2023-01-23T18:22:10.355Z,12.13
2023-01-23T18:24:38.347Z,11.40
2023-01-23T18:27:14.330Z,11.17
2023-01-23T18:29:41.772Z,11.70
2023-01-23T18:32:14.980Z,11.17
2023-01-23T18:34:50.378Z,11.37
2023-01-23T18:37:50.190Z,11.43
2023-01-23T18:40:18.465Z,13.00
2023-01-23T18:42:53.530Z,10.70
2023-01-23T18:45:27.315Z,10.80
2023-01-23T18:47:55.580Z,10.97
2023-01-23T18:50:25.460Z,12.20
2023-01-23T18:53:12.856Z,10.87
2023-01-23T18:55:44.466Z,11.40
2023-01-23T18:58:20.888Z,12.60
2023-01-23T19:00:51.075Z,12.80
2023-01-23T19:03:18.691Z,11.50
2023-01-23T19:05:46.376Z,12.30
2023-01-23T19:08:27.897Z,13.80
2023-01-23T19:10:58.410Z,12.30
2023-01-23T19:13:29.876Z,12.40
2023-01-23T19:16:16.709Z,11.80
2023-01-23T19:18:46.356Z,13.57
2023-01-23T19:21:15.482Z,12.03
2023-01-23T19:23:52.221Z,12.03
2023-01-23T19:26:20.026Z,13.20
2023-01-23T19:28:47.357Z,11.10
2023-01-23T19:31:22.993Z,11.20
2023-01-23T19:33:50.763Z,12.10
2023-01-23T19:36:18.010Z,12.40
2023-01-23T19:38:45.470Z,12.40
2023-01-23T19:41:19.425Z,14.10
2023-01-23T19:43:53.658Z,11.30
2023-01-23T19:46:22.617Z,13.33
2023-01-23T19:48:51.616Z,12.27
2023-01-23T19:51:21.495Z,12.47
2023-01-23T19:53:49.260Z,13.43
2023-01-23T19:56:20.704Z,13.83
2023-01-23T19:58:48.270Z,13.07
2023-01-23T20:01:31.220Z,11.53
2023-01-23T20:03:58.729Z,11.87
2023-01-23T20:06:25.923Z,12.60
2023-01-23T20:08:53.334Z,11.80
2023-01-23T20:11:20.760Z,11.30
2023-01-23T20:13:48.159Z,12.47
2023-01-23T20:16:20.214Z,12.50
2023-01-23T20:18:48.790Z,12.00
2023-01-23T20:21:16.720Z,11.40
2023-01-23T20:23:44.297Z,12.67
2023-01-23T20:26:12.878Z,11.57
2023-01-23T20:28:40.222Z,11.30
2023-01-23T20:31:08.340Z,12.33
2023-01-23T20:33:36.072Z,13.30
2023-01-23T20:36:03.505Z,12.20
2023-01-23T20:38:30.760Z,11.80
2023-01-23T20:41:04.973Z,11.93
2023-01-23T20:43:32.140Z,12.53
2023-01-23T20:45:59.330Z,11.57
2023-01-23T20:48:26.506Z,11.80
2023-01-23T20:50:55.085Z,12.33
2023-01-23T20:53:31.368Z,11.80
2023-01-23T20:56:00.120Z,13.87
2023-01-23T20:58:46.853Z,10.43
2023-01-23T21:01:14.408Z,12.00
2023-01-23T21:03:41.915Z,12.57
2023-01-23T21:06:09.747Z,12.87
2023-01-23T21:08:37.188Z,11.90
2023-01-23T21:11:14.940Z,10.60
2023-01-23T21:13:42.690Z,11.30
2023-01-23T21:16:12.821Z,12.10
2023-01-23T21:18:46.157Z,12.77
2023-01-23T21:21:14.416Z,12.40
2023-01-23T21:23:42.385Z,12.87
2023-01-23T21:26:09.626Z,13.53
2023-01-23T21:28:38.259Z,11.80
2023-01-23T21:31:12.468Z,11.53
2023-01-23T21:33:44.037Z,11.77
2023-01-23T21:36:12.097Z,11.73
2023-01-23T21:38:58.671Z,11.43
2023-01-23T21:41:25.987Z,11.30
2023-01-23T21:43:53.158Z,10.87
2023-01-23T21:46:21.145Z,13.00
2023-01-23T21:48:48.317Z,10.57
2023-01-23T21:51:19.942Z,12.80
2023-01-23T21:53:47.906Z,12.40
2023-01-23T21:56:16.333Z,12.00
2023-01-23T21:58:43.669Z,13.43
2023-01-23T22:01:31.948Z,10.67
2023-01-23T22:03:59.961Z,12.03
2023-01-23T22:06:27.157Z,11.90
2023-01-23T22:08:54.485Z,11.77
2023-01-23T22:11:21.783Z,11.43
2023-01-23T22:13:49.015Z,11.33
2023-01-23T22:16:16.546Z,13.80
2023-01-23T22:18:45.352Z,11.47
2023-01-23T22:21:12.682Z,13.20
2023-01-23T22:23:40.092Z,12.70
2023-01-23T22:26:08.227Z,13.90
2023-01-23T22:28:35.514Z,12.63
2023-01-23T22:31:07.329Z,13.30
2023-01-23T22:33:40.484Z,11.90
2023-01-23T22:36:09.284Z,11.93
2023-01-23T22:38:36.495Z,10.93
2023-01-23T22:41:04.723Z,12.00
2023-01-23T22:43:32.246Z,12.63
2023-01-23T22:46:04.967Z,11.87
2023-01-23T22:48:32.138Z,11.83
2023-01-23T22:51:01.629Z,11.93
2023-01-23T22:53:28.907Z,13.50
2023-01-23T22:55:56.048Z,12.10
2023-01-23T22:58:23.780Z,13.27
2023-01-23T23:00:53.104Z,12.20
2023-01-23T23:03:21.484Z,12.20
2023-01-23T23:05:56.730Z,12.77
2023-01-23T23:08:24.086Z,11.97
2023-01-23T23:10:58.136Z,11.40
2023-01-23T23:13:25.348Z,12.43
2023-01-23T23:15:52.756Z,12.20
2023-01-23T23:18:20.232Z,11.97
2023-01-23T23:20:47.797Z,12.67
2023-01-23T23:23:16.013Z,12.37
2023-01-23T23:25:43.419Z,12.43
2023-01-23T23:28:10.615Z,12.90
2023-01-23T23:30:37.737Z,12.13
2023-01-23T23:33:04.950Z,12.27
2023-01-23T23:35:32.169Z,12.33
2023-01-23T23:37:59.421Z,12.70
2023-01-23T23:40:26.733Z,14.07
2023-01-23T23:42:54.080Z,12.17
2023-01-23T23:45:21.522Z,12.10
2023-01-23T23:47:49.408Z,12.00
2023-01-23T23:50:16.986Z,12.63
2023-01-23T23:52:44.308Z,12.93
2023-01-23T23:55:11.540Z,11.70
2023-01-23T23:57:40.176Z,13.67
